createdAt,value
2022-08-11T00:01:18.393Z,23.40
2022-08-11T00:03:51.938Z,23.30
2022-08-11T00:06:32.443Z,23.20
2022-08-11T00:09:05.195Z,23.20
2022-08-11T00:11:37.225Z,23.20
2022-08-11T00:14:17.990Z,23.20
2022-08-11T00:16:57.325Z,23.30
2022-08-11T00:20:12.583Z,23.20
2022-08-11T00:22:24.774Z,23.20
2022-08-11T00:24:58.537Z,23.10
2022-08-11T00:27:37.094Z,23.10
2022-08-11T00:30:09.335Z,23.00
2022-08-11T00:32:42.841Z,23.10
2022-08-11T00:35:53.963Z,23.00
2022-08-11T00:38:09.188Z,22.90
2022-08-11T00:40:45.440Z,22.90
2022-08-11T00:43:29.095Z,22.80
2022-08-11T00:46:17.530Z,22.80
2022-08-11T00:49:07.416Z,22.80
2022-08-11T00:52:05.354Z,22.70
2022-08-11T00:55:31.141Z,22.70
2022-08-11T00:58:57.044Z,22.70
2022-08-11T01:01:49.850Z,22.70
2022-08-11T01:05:03.655Z,22.70
2022-08-11T01:08:26.898Z,22.70
2022-08-11T01:11:27.050Z,22.60
2022-08-11T01:15:16.861Z,22.60
2022-08-11T01:19:11.531Z,22.50
2022-08-11T01:22:27.748Z,22.50
2022-08-11T01:25:57.259Z,22.40
2022-08-11T01:29:25.215Z,22.40
2022-08-11T01:33:09.088Z,22.30
2022-08-11T01:36:08.985Z,22.30
2022-08-11T01:39:40.105Z,22.30
2022-08-11T01:43:07.232Z,22.20
2022-08-11T01:45:44.047Z,22.20
2022-08-11T01:48:29.038Z,22.20
2022-08-11T01:51:21.091Z,22.20
2022-08-11T01:54:01.988Z,22.20
2022-08-11T01:56:59.267Z,22.20
2022-08-11T01:59:37.310Z,22.20
2022-08-11T02:02:47.763Z,22.20
2022-08-11T02:05:51.118Z,22.20
2022-08-11T02:08:50.652Z,22.10
2022-08-11T02:11:31.622Z,22.10
2022-08-11T02:14:17.102Z,22.10
2022-08-11T02:16:59.739Z,22.00
2022-08-11T02:20:01.230Z,22.00
2022-08-11T02:22:58.468Z,22.00
2022-08-11T02:25:38.535Z,21.90
2022-08-11T02:28:29.127Z,21.90
2022-08-11T02:32:25.554Z,21.90
2022-08-11T02:34:39.309Z,21.90
2022-08-11T02:37:24.552Z,21.80
2022-08-11T02:40:16.406Z,21.70
2022-08-11T02:43:07.214Z,21.70
2022-08-11T02:45:57.793Z,21.60
2022-08-11T02:48:58.965Z,21.60
2022-08-11T02:51:43.630Z,21.60
2022-08-11T02:54:24.644Z,21.50
2022-08-11T02:57:03.401Z,21.40
2022-08-11T02:59:52.969Z,21.40
2022-08-11T03:02:46.013Z,21.40
2022-08-11T03:05:32.151Z,21.40
2022-08-11T03:08:18.769Z,21.30
2022-08-11T03:11:20.447Z,21.30
2022-08-11T03:14:28.338Z,21.20
2022-08-11T03:17:11.394Z,21.20
2022-08-11T03:20:00.003Z,21.20
2022-08-11T03:22:39.270Z,21.10
2022-08-11T03:25:22.636Z,21.10
2022-08-11T03:28:03.598Z,21.00
2022-08-11T03:30:44.735Z,21.00
2022-08-11T03:33:43.957Z,21.00
2022-08-11T03:36:29.423Z,21.00
2022-08-11T03:39:14.353Z,21.00
2022-08-11T03:42:04.189Z,21.00
2022-08-11T03:44:51.510Z,21.00
2022-08-11T03:47:58.512Z,20.90
2022-08-11T03:51:08.897Z,20.90
2022-08-11T03:54:16.545Z,20.80
2022-08-11T03:57:31.679Z,20.80
2022-08-11T04:00:48.929Z,20.80
2022-08-11T04:04:26.276Z,20.90
2022-08-11T04:07:57.334Z,21.10
2022-08-11T04:11:25.427Z,21.30
2022-08-11T04:15:01.835Z,21.50
2022-08-11T04:18:22.028Z,21.70
2022-08-11T04:21:28.008Z,21.90
2022-08-11T04:24:39.606Z,22.10
2022-08-11T04:28:01.002Z,22.40
2022-08-11T04:30:52.878Z,22.70
2022-08-11T04:33:52.085Z,22.90
2022-08-11T04:37:06.145Z,23.00
2022-08-11T04:40:04.285Z,23.10
2022-08-11T04:44:05.861Z,23.00
2022-08-11T04:47:09.882Z,22.90
2022-08-11T04:50:26.764Z,22.80
2022-08-11T04:53:44.897Z,22.80
2022-08-11T04:56:56.067Z,22.80
2022-08-11T05:00:22.528Z,22.90
2022-08-11T05:03:44.389Z,23.20
2022-08-11T05:07:09.594Z,23.80
2022-08-11T05:10:10.185Z,23.90
2022-08-11T05:12:48.331Z,23.70
2022-08-11T05:15:48.304Z,23.70
2022-08-11T05:18:44.241Z,24.40
2022-08-11T05:21:44.864Z,25.40
2022-08-11T05:24:39.887Z,26.40
2022-08-11T05:27:30.824Z,26.90
2022-08-11T05:30:24.407Z,27.30
2022-08-11T05:33:21.053Z,27.90
2022-08-11T05:36:01.567Z,28.60
2022-08-11T05:38:54.565Z,28.70
2022-08-11T05:41:45.617Z,28.30
2022-08-11T05:44:39.908Z,27.80
2022-08-11T05:47:28.560Z,27.60
2022-08-11T05:50:15.565Z,28.20
2022-08-11T05:53:08.893Z,29.00
2022-08-11T05:56:03.296Z,29.70
2022-08-11T05:58:42.242Z,30.00
2022-08-11T06:01:14.302Z,30.50
2022-08-11T06:04:08.116Z,30.80
2022-08-11T06:06:44.879Z,30.50
2022-08-11T06:09:15.784Z,30.90
2022-08-11T06:11:45.526Z,31.40
2022-08-11T06:14:16.657Z,31.80
2022-08-11T06:16:50.516Z,31.60
2022-08-11T06:19:24.926Z,31.70
2022-08-11T06:21:54.670Z,32.00
2022-08-11T06:24:24.297Z,32.10
2022-08-11T06:27:11.896Z,32.20
2022-08-11T06:29:55.369Z,32.30
2022-08-11T06:32:29.019Z,31.90
2022-08-11T06:35:20.896Z,32.00
2022-08-11T06:38:07.890Z,32.40
2022-08-11T06:41:11.699Z,32.30
2022-08-11T06:43:55.348Z,32.60
2022-08-11T06:46:31.616Z,33.20
2022-08-11T06:49:04.324Z,33.10
2022-08-11T06:51:41.834Z,32.40
2022-08-11T06:54:16.064Z,32.60
2022-08-11T06:57:29.450Z,32.30
2022-08-11T07:00:14.031Z,32.00
2022-08-11T07:02:56.272Z,32.70
2022-08-11T07:05:43.959Z,33.00
2022-08-11T07:09:23.751Z,33.00
2022-08-11T07:12:56.603Z,32.60
2022-08-11T07:16:11.520Z,33.10
2022-08-11T07:18:56.503Z,32.90
2022-08-11T07:22:02.761Z,32.90
2022-08-11T07:25:01.940Z,32.30
2022-08-11T07:27:57.404Z,32.00
2022-08-11T07:30:27.955Z,31.50
2022-08-11T07:33:00.923Z,31.60
2022-08-11T07:35:36.335Z,32.00
2022-08-11T07:38:09.282Z,33.10
2022-08-11T07:40:40.785Z,33.70
2022-08-11T07:43:10.754Z,34.00
2022-08-11T07:46:02.445Z,34.20
2022-08-11T07:48:49.959Z,34.40
2022-08-11T07:51:39.062Z,34.80
2022-08-11T07:54:16.464Z,34.60
2022-08-11T07:57:07.145Z,34.50
2022-08-11T08:00:00.208Z,35.10
2022-08-11T08:02:51.602Z,35.30
2022-08-11T08:05:39.478Z,35.30
2022-08-11T08:08:29.086Z,35.00
2022-08-11T08:11:22.435Z,34.70
2022-08-11T08:14:14.104Z,34.60
2022-08-11T08:17:01.612Z,33.90
2022-08-11T08:19:31.187Z,33.40
2022-08-11T08:22:04.373Z,33.10
2022-08-11T08:24:51.023Z,33.10
2022-08-11T08:27:22.685Z,32.70
2022-08-11T08:30:10.712Z,32.60
2022-08-11T08:32:44.901Z,32.40
2022-08-11T08:35:14.328Z,32.10
2022-08-11T08:37:45.392Z,31.80
2022-08-11T08:40:16.989Z,31.60
2022-08-11T08:42:55.107Z,31.30
2022-08-11T08:45:27.440Z,31.10
2022-08-11T08:48:03.665Z,31.10
2022-08-11T08:50:56.071Z,31.10
2022-08-11T08:53:32.950Z,31.20
2022-08-11T08:56:04.227Z,31.50
2022-08-11T08:58:35.913Z,31.70
2022-08-11T09:01:07.347Z,32.40
2022-08-11T09:04:04.766Z,33.20
2022-08-11T09:06:32.890Z,33.30
2022-08-11T09:09:02.084Z,32.90
2022-08-11T09:11:48.618Z,32.70
2022-08-11T09:14:18.748Z,32.10
2022-08-11T09:16:51.156Z,31.70
2022-08-11T09:19:22.505Z,31.50
2022-08-11T09:22:13.657Z,31.30
2022-08-11T09:25:00.601Z,31.50
2022-08-11T09:27:29.771Z,32.50
2022-08-11T09:30:00.015Z,33.50
2022-08-11T09:32:31.634Z,34.00
2022-08-11T09:35:04.878Z,34.20
2022-08-11T09:37:54.385Z,34.30
2022-08-11T09:40:33.724Z,34.60
2022-08-11T09:43:24.649Z,35.00
2022-08-11T09:45:55.253Z,35.30
2022-08-11T09:48:28.062Z,35.60
2022-08-11T09:51:02.482Z,35.10
2022-08-11T09:53:40.945Z,34.00
2022-08-11T09:56:34.369Z,33.60
2022-08-11T09:59:04.985Z,33.40
2022-08-11T10:01:42.434Z,33.00
2022-08-11T10:04:18.303Z,32.70
2022-08-11T10:07:05.602Z,32.40
2022-08-11T10:09:43.831Z,32.30
2022-08-11T10:12:21.324Z,31.90
2022-08-11T10:15:14.755Z,31.80
2022-08-11T10:18:07.814Z,31.50
2022-08-11T10:20:40.354Z,31.40
2022-08-11T10:23:31.021Z,31.10
2022-08-11T10:26:17.254Z,30.90
2022-08-11T10:29:09.960Z,30.90
2022-08-11T10:31:57.942Z,30.90
2022-08-11T10:34:33.628Z,30.80
2022-08-11T10:37:15.114Z,31.00
2022-08-11T10:39:46.160Z,31.30
2022-08-11T10:42:55.358Z,31.80
2022-08-11T10:45:40.202Z,32.20
2022-08-11T10:48:15.186Z,32.50
2022-08-11T10:51:06.066Z,32.40
2022-08-11T10:53:54.677Z,31.90
2022-08-11T10:56:41.604Z,31.50
2022-08-11T10:59:11.962Z,31.20
2022-08-11T11:01:44.338Z,30.90
2022-08-11T11:04:18.008Z,30.70
2022-08-11T11:07:01.313Z,30.60
2022-08-11T11:09:34.350Z,30.50
2022-08-11T11:12:29.960Z,30.50
2022-08-11T11:15:19.935Z,30.20
2022-08-11T11:17:57.238Z,30.10
2022-08-11T11:20:37.188Z,30.20
2022-08-11T11:23:20.119Z,30.30
2022-08-11T11:26:10.244Z,30.50
2022-08-11T11:29:32.673Z,30.70
2022-08-11T11:32:23.046Z,30.80
2022-08-11T11:35:19.991Z,30.80
2022-08-11T11:38:04.554Z,30.90
2022-08-11T11:40:35.547Z,31.00
2022-08-11T11:43:06.781Z,31.20
2022-08-11T11:45:35.771Z,31.30
2022-08-11T11:48:06.606Z,31.10
2022-08-11T11:50:38.893Z,31.30
2022-08-11T11:53:09.843Z,31.50
2022-08-11T11:55:39.715Z,31.60
2022-08-11T11:58:28.394Z,31.70
2022-08-11T12:01:15.516Z,31.60
2022-08-11T12:03:47.962Z,31.60
2022-08-11T12:06:20.955Z,31.40
2022-08-11T12:08:54.984Z,31.30
2022-08-11T12:11:43.933Z,31.20
2022-08-11T12:14:19.421Z,31.10
2022-08-11T12:16:50.361Z,30.80
2022-08-11T12:19:24.634Z,30.80
2022-08-11T12:22:14.515Z,30.90
2022-08-11T12:25:01.863Z,31.00
2022-08-11T12:27:32.697Z,31.00
2022-08-11T12:30:08.678Z,31.00
2022-08-11T12:32:41.170Z,31.00
2022-08-11T12:35:11.636Z,31.00
2022-08-11T12:37:46.541Z,30.90
2022-08-11T12:40:49.418Z,30.90
2022-08-11T12:43:56.797Z,30.90
2022-08-11T12:46:34.341Z,30.90
2022-08-11T12:49:30.326Z,30.90
2022-08-11T12:52:13.780Z,30.90
2022-08-11T12:54:57.233Z,30.90
2022-08-11T12:57:51.598Z,30.90
2022-08-11T13:00:39.520Z,30.80
2022-08-11T13:03:30.845Z,30.90
2022-08-11T13:06:03.765Z,31.00
2022-08-11T13:08:37.993Z,31.00
2022-08-11T13:11:56.154Z,31.00
2022-08-11T13:14:16.875Z,31.00
2022-08-11T13:17:05.173Z,31.00
2022-08-11T13:19:36.891Z,31.00
2022-08-11T13:22:07.580Z,31.00
2022-08-11T13:24:38.000Z,31.00
2022-08-11T13:27:08.024Z,31.10
2022-08-11T13:29:38.650Z,31.10
2022-08-11T13:32:08.813Z,31.10
2022-08-11T13:34:42.410Z,31.10
2022-08-11T13:37:14.592Z,31.20
2022-08-11T13:39:48.132Z,31.30
2022-08-11T13:42:22.315Z,31.60
2022-08-11T13:44:51.755Z,31.80
2022-08-11T13:47:23.843Z,32.00
2022-08-11T13:49:55.617Z,32.00
2022-08-11T13:52:26.473Z,31.80
2022-08-11T13:54:56.068Z,31.50
2022-08-11T13:58:08.650Z,31.10
2022-08-11T14:00:26.959Z,31.10
2022-08-11T14:02:58.979Z,31.20
2022-08-11T14:05:39.041Z,31.30
2022-08-11T14:08:38.233Z,31.20
2022-08-11T14:12:22.517Z,31.20
2022-08-11T14:14:26.632Z,31.20
2022-08-11T14:16:59.098Z,31.30
2022-08-11T14:19:30.134Z,31.20
2022-08-11T14:22:11.523Z,30.70
2022-08-11T14:24:44.019Z,30.50
2022-08-11T14:28:15.489Z,30.40
2022-08-11T14:30:26.796Z,30.20
2022-08-11T14:32:56.358Z,30.10
2022-08-11T14:35:29.941Z,30.20
2022-08-11T14:38:00.778Z,30.20
2022-08-11T14:40:51.598Z,30.20
2022-08-11T14:44:13.277Z,30.10
2022-08-11T14:46:44.801Z,30.00
2022-08-11T14:49:16.315Z,29.60
2022-08-11T14:51:47.121Z,29.30
2022-08-11T14:54:35.941Z,29.20
2022-08-11T14:57:04.794Z,29.40
2022-08-11T14:59:35.408Z,29.40
2022-08-11T15:02:24.052Z,29.60
2022-08-11T15:04:53.189Z,29.70
2022-08-11T15:07:29.980Z,29.60
2022-08-11T15:10:17.550Z,29.50
2022-08-11T15:12:46.914Z,29.50
2022-08-11T15:15:34.896Z,29.50
2022-08-11T15:18:08.496Z,29.30
2022-08-11T15:20:55.519Z,29.30
2022-08-11T15:23:41.848Z,29.30
2022-08-11T15:26:15.395Z,29.50
2022-08-11T15:29:09.217Z,29.80
2022-08-11T15:31:58.172Z,29.90
2022-08-11T15:34:48.157Z,30.10
2022-08-11T15:37:32.098Z,30.20
2022-08-11T15:40:31.194Z,30.10
2022-08-11T15:43:42.310Z,29.80
2022-08-11T15:46:18.997Z,29.70
2022-08-11T15:48:57.332Z,29.50
2022-08-11T15:51:37.880Z,29.30
2022-08-11T15:54:11.670Z,29.20
2022-08-11T15:56:45.884Z,29.20
2022-08-11T15:59:41.945Z,29.20
2022-08-11T16:02:34.713Z,29.10
2022-08-11T16:05:09.581Z,29.00
2022-08-11T16:07:40.827Z,29.00
2022-08-11T16:10:18.826Z,28.90
2022-08-11T16:13:16.047Z,28.80
2022-08-11T16:16:05.722Z,28.80
2022-08-11T16:18:43.409Z,28.90
2022-08-11T16:21:34.304Z,28.70
2022-08-11T16:27:07.289Z,28.70
2022-08-11T16:27:13.095Z,28.70
2022-08-11T16:29:47.865Z,28.60
2022-08-11T16:32:23.548Z,28.60
2022-08-11T16:35:16.321Z,28.60
2022-08-11T16:38:04.944Z,28.60
2022-08-11T16:40:35.604Z,28.50
2022-08-11T16:43:27.740Z,28.50
2022-08-11T16:46:16.932Z,28.40
2022-08-11T16:48:51.231Z,28.40
2022-08-11T16:51:21.228Z,28.30
2022-08-11T16:54:05.194Z,28.30
2022-08-11T16:56:40.205Z,28.30
2022-08-11T16:59:15.236Z,28.30
2022-08-11T17:01:49.163Z,28.20
2022-08-11T17:04:55.637Z,28.20
2022-08-11T17:08:01.094Z,28.10
2022-08-11T17:10:57.774Z,28.10
2022-08-11T17:13:38.071Z,28.10
2022-08-11T17:16:12.725Z,28.20
2022-08-11T17:18:52.574Z,28.40
2022-08-11T17:21:27.588Z,28.50
2022-08-11T17:24:06.441Z,28.50
2022-08-11T17:26:58.397Z,28.50
2022-08-11T17:29:33.482Z,28.60
2022-08-11T17:32:55.558Z,28.60
2022-08-11T17:35:32.223Z,28.60
2022-08-11T17:38:06.870Z,28.60
2022-08-11T17:40:40.001Z,28.80
2022-08-11T17:43:28.140Z,28.90
2022-08-11T17:46:16.210Z,29.00
2022-08-11T17:48:48.341Z,29.20
2022-08-11T17:51:36.046Z,29.20
2022-08-11T17:54:25.692Z,29.30
2022-08-11T17:57:20.334Z,29.30
2022-08-11T17:59:53.544Z,29.00
2022-08-11T18:02:45.337Z,28.50
2022-08-11T18:05:18.315Z,28.20
2022-08-11T18:08:07.164Z,28.00
2022-08-11T18:10:58.264Z,27.80
2022-08-11T18:13:50.597Z,27.70
2022-08-11T18:16:39.020Z,27.60
2022-08-11T18:19:25.960Z,27.50
2022-08-11T18:22:22.590Z,27.30
2022-08-11T18:25:16.125Z,27.20
2022-08-11T18:28:07.442Z,27.10
2022-08-11T18:31:03.908Z,27.00
2022-08-11T18:34:07.365Z,26.80
2022-08-11T18:36:59.144Z,26.60
2022-08-11T18:39:56.323Z,26.30
2022-08-11T18:42:46.530Z,26.30
2022-08-11T18:45:45.892Z,26.20
2022-08-11T18:48:39.566Z,26.10
2022-08-11T18:51:36.566Z,26.10
2022-08-11T18:54:30.592Z,26.10
2022-08-11T18:57:22.157Z,26.10
2022-08-11T19:00:12.240Z,26.10
2022-08-11T19:03:01.900Z,26.00
2022-08-11T19:06:35.389Z,26.00
2022-08-11T19:09:08.172Z,26.00
2022-08-11T19:11:55.883Z,25.90
2022-08-11T19:14:49.422Z,25.90
2022-08-11T19:17:45.950Z,25.90
2022-08-11T19:20:39.115Z,25.90
2022-08-11T19:23:28.320Z,25.90
2022-08-11T19:26:17.566Z,25.90
2022-08-11T19:29:07.633Z,25.80
2022-08-11T19:31:56.736Z,25.80
2022-08-11T19:34:45.078Z,25.70
2022-08-11T19:37:33.918Z,25.60
2022-08-11T19:40:32.766Z,25.50
2022-08-11T19:43:23.917Z,25.30
2022-08-11T19:46:16.327Z,25.20
2022-08-11T19:49:08.107Z,25.20
2022-08-11T19:51:56.526Z,25.10
2022-08-11T19:54:47.338Z,25.00
2022-08-11T19:57:39.987Z,25.00
2022-08-11T20:00:31.313Z,25.00
2022-08-11T20:03:22.259Z,24.90
2022-08-11T20:06:10.205Z,24.80
2022-08-11T20:09:02.793Z,24.80
2022-08-11T20:11:55.153Z,24.80
2022-08-11T20:14:45.344Z,24.70
2022-08-11T20:17:32.890Z,24.60
2022-08-11T20:20:24.679Z,24.60
2022-08-11T20:23:12.332Z,24.40
2022-08-11T20:26:14.250Z,24.40
2022-08-11T20:29:10.984Z,24.40
2022-08-11T20:31:58.296Z,24.40
2022-08-11T20:34:44.538Z,24.40
2022-08-11T20:37:31.890Z,24.40
2022-08-11T20:40:23.925Z,24.40
2022-08-11T20:44:05.153Z,24.50
2022-08-11T20:46:21.265Z,24.50
2022-08-11T20:49:10.624Z,24.60
2022-08-11T20:52:01.233Z,24.50
2022-08-11T20:54:54.701Z,24.50
2022-08-11T20:58:00.140Z,24.40
2022-08-11T21:00:48.988Z,24.40
2022-08-11T21:03:44.724Z,24.20
2022-08-11T21:06:33.950Z,24.20
2022-08-11T21:09:58.687Z,24.20
2022-08-11T21:12:34.877Z,24.10
2022-08-11T21:15:39.123Z,24.10
2022-08-11T21:18:31.981Z,24.10
2022-08-11T21:21:25.187Z,24.10
2022-08-11T21:24:15.716Z,24.00
2022-08-11T21:27:06.853Z,24.00
2022-08-11T21:29:56.012Z,23.90
2022-08-11T21:32:44.884Z,23.90
2022-08-11T21:35:31.401Z,23.70
2022-08-11T21:38:22.874Z,23.70
2022-08-11T21:41:11.332Z,23.70
2022-08-11T21:44:00.435Z,23.70
2022-08-11T21:46:48.835Z,23.70
2022-08-11T21:49:38.770Z,23.60
2022-08-11T21:52:25.063Z,23.50
2022-08-11T21:55:13.482Z,23.50
2022-08-11T21:58:00.467Z,23.50
2022-08-11T22:00:46.775Z,23.40
2022-08-11T22:03:34.451Z,23.40
2022-08-11T22:06:36.521Z,23.40
2022-08-11T22:09:22.929Z,23.40
2022-08-11T22:12:35.241Z,23.30
2022-08-11T22:15:18.374Z,23.30
2022-08-11T22:18:04.444Z,23.30
2022-08-11T22:20:53.734Z,23.20
2022-08-11T22:23:41.097Z,23.20
2022-08-11T22:26:30.166Z,23.20
2022-08-11T22:29:19.281Z,23.10
2022-08-11T22:32:27.138Z,23.10
2022-08-11T22:35:15.268Z,23.10
2022-08-11T22:38:04.430Z,23.10
2022-08-11T22:40:51.258Z,23.10
2022-08-11T22:43:38.069Z,22.90
2022-08-11T22:46:26.863Z,23.00
2022-08-11T22:49:14.847Z,22.90
2022-08-11T22:52:03.436Z,22.80
2022-08-11T22:54:51.997Z,22.70
2022-08-11T22:57:40.404Z,22.60
2022-08-11T23:00:47.414Z,22.60
2022-08-11T23:03:38.354Z,22.50
2022-08-11T23:06:25.953Z,22.50
2022-08-11T23:09:13.691Z,22.50
2022-08-11T23:12:07.750Z,22.50
2022-08-11T23:14:59.200Z,22.40
2022-08-11T23:17:46.191Z,22.40
2022-08-11T23:20:46.396Z,22.40
2022-08-11T23:23:36.072Z,22.40
2022-08-11T23:26:23.586Z,22.40
2022-08-11T23:29:11.265Z,22.30
2022-08-11T23:31:58.180Z,22.30
2022-08-11T23:35:03.568Z,22.30
2022-08-11T23:37:53.107Z,22.20
2022-08-11T23:40:39.405Z,22.20
2022-08-11T23:43:26.892Z,22.10
2022-08-11T23:46:12.648Z,22.10
2022-08-11T23:48:59.863Z,22.10
2022-08-11T23:51:46.966Z,22.10
2022-08-11T23:54:37.347Z,22.10
2022-08-11T23:57:24.604Z,22.00
